Time;durP1;ratioP1;P1;durP2;ratioP2;P2;SDS_P1;SDS_P2;PMS_P1;PMS_P2;Temp;Humidity;BMP_temperature;BMP_pressure;BME280_temperature;BME280_humidity;BME280_pressure;Samples;Min_cycle;Max_cycle;Signal;HPM_P1;HPM_P2
2022/06/15 00:01:22;;;;;;;;;9.25;8.75;;;;;24.09;36.18;100766.38;5068064;27;45462;-64
2022/06/15 00:03:49;;;;;;;;;8.75;8.75;;;;;24.08;36.04;100764.69;5054262;28;45492;-64
2022/06/15 00:06:16;;;;;;;;;9.00;8.50;;;;;24.06;36.15;100769.34;5067515;28;45606;-64
2022/06/15 00:08:44;;;;;;;;;6.25;6.25;;;;;24.02;36.29;100763.41;5052832;28;46693;-65
2022/06/15 00:11:16;;;;;;;;;11.00;9.25;;;;;23.98;36.37;100760.13;5059279;28;45483;-63
2022/06/15 00:13:42;;;;;;;;;9.25;9.00;;;;;23.92;36.25;100758.00;5052608;28;45541;-64
2022/06/15 00:16:08;;;;;;;;;9.25;8.25;;;;;23.96;36.11;100751.34;5070880;28;45499;-64
2022/06/15 00:18:35;;;;;;;;;11.25;9.75;;;;;23.94;36.04;100749.81;5059239;28;45573;-64
2022/06/15 00:21:00;;;;;;;;;7.75;7.75;;;;;23.95;35.99;100759.56;5058378;28;45504;-65
2022/06/15 00:23:27;;;;;;;;;7.25;6.75;;;;;23.93;36.50;100754.31;5076968;28;45493;-66
2022/06/15 00:25:53;;;;;;;;;7.50;7.50;;;;;23.90;36.21;100754.59;5058568;28;45644;-66
2022/06/15 00:28:20;;;;;;;;;9.50;8.50;;;;;23.87;36.15;100752.16;5064003;28;46067;-63
2022/06/15 00:30:49;;;;;;;;;8.25;8.25;;;;;23.86;35.97;100755.84;5066138;28;45459;-66
2022/06/15 00:33:14;;;;;;;;;9.00;9.00;;;;;23.86;36.28;100755.84;5057216;28;45464;-64
2022/06/15 00:35:40;;;;;;;;;8.00;8.00;;;;;23.85;36.28;100755.97;5065857;28;45674;-65
2022/06/15 00:38:07;;;;;;;;;7.25;7.25;;;;;23.80;36.24;100756.38;5065083;27;45988;-65
2022/06/15 00:40:35;;;;;;;;;5.50;5.50;;;;;23.81;36.37;100768.84;5055400;28;45566;-65
2022/06/15 00:43:00;;;;;;;;;8.00;8.00;;;;;23.72;36.33;100758.91;5039199;28;45449;-64
2022/06/15 00:45:26;;;;;;;;;8.00;8.00;;;;;23.73;36.18;100774.03;5061045;28;45511;-65
2022/06/15 00:47:52;;;;;;;;;8.75;7.25;;;;;23.70;36.61;100763.53;5080961;27;45517;-64
2022/06/15 00:50:23;;;;;;;;;7.75;7.75;;;;;23.70;36.68;100767.06;5079107;27;45412;-66
2022/06/15 00:52:52;;;;;;;;;7.25;7.25;;;;;23.68;36.67;100766.34;5078203;27;45496;-64
2022/06/15 00:55:30;;;;;;;;;9.50;7.50;;;;;23.67;36.57;100771.84;5076516;28;45624;-65
2022/06/15 00:57:56;;;;;;;;;7.00;7.00;;;;;23.64;36.86;100772.13;5076867;28;46711;-64
2022/06/15 01:00:23;;;;;;;;;6.50;6.50;;;;;23.61;36.74;100765.19;5076608;28;45512;-65
2022/06/15 01:02:49;;;;;;;;;9.00;8.50;;;;;23.59;37.08;100759.13;5076559;27;45499;-64
2022/06/15 01:05:24;;;;;;;;;8.00;8.00;;;;;23.60;36.74;100764.34;5076844;27;45468;-65
2022/06/15 01:07:55;;;;;;;;;6.25;6.25;;;;;23.62;36.65;100766.91;5076696;27;46311;-64
2022/06/15 01:10:43;;;;;;;;;4.00;4.00;;;;;23.55;36.84;100763.88;5077118;28;45462;-64
2022/06/15 01:13:26;;;;;;;;;5.25;5.25;;;;;23.54;36.68;100761.34;5076837;27;45477;-63
2022/06/15 01:16:01;;;;;;;;;8.00;8.00;;;;;23.56;36.85;100770.97;5076571;27;45481;-65
2022/06/15 01:18:32;;;;;;;;;8.25;6.25;;;;;23.55;37.27;100768.41;5076474;27;45501;-64
2022/06/15 01:21:03;;;;;;;;;6.75;6.75;;;;;23.53;36.68;100775.75;5076314;27;45580;-64
2022/06/15 01:23:54;;;;;;;;;8.00;8.00;;;;;23.52;37.02;100774.06;5076489;28;45455;-64
2022/06/15 01:26:28;;;;;;;;;7.00;7.00;;;;;23.51;36.67;100770.53;5073964;28;45507;-64
2022/06/15 01:28:59;;;;;;;;;8.25;6.25;;;;;23.48;36.89;100768.09;5074971;27;46021;-64
2022/06/15 01:31:32;;;;;;;;;6.25;6.25;;;;;23.48;37.24;100767.22;5076606;28;45375;-64
2022/06/15 01:33:58;;;;;;;;;7.25;7.25;;;;;23.48;37.13;100762.75;5075047;28;45529;-64
2022/06/15 01:36:46;;;;;;;;;8.00;8.00;;;;;23.45;37.13;100762.97;5076312;28;45607;-65
2022/06/15 01:39:28;;;;;;;;;7.00;6.25;;;;;23.46;37.26;100767.38;5076605;28;45557;-65
2022/06/15 01:42:00;;;;;;;;;6.25;6.25;;;;;23.43;37.46;100764.09;5056318;28;45424;-64
2022/06/15 01:44:59;;;;;;;;;8.25;8.00;;;;;23.38;37.25;100753.78;5056212;28;45465;-64
2022/06/15 01:47:29;;;;;;;;;5.00;5.00;;;;;23.35;37.57;100754.06;5005265;28;45478;-64
2022/06/15 01:49:55;;;;;;;;;6.25;6.25;;;;;23.34;37.48;100757.69;5056001;28;45499;-63
2022/06/15 01:52:24;;;;;;;;;6.50;6.50;;;;;23.31;37.67;100752.59;5055950;28;45436;-64
2022/06/15 01:55:00;;;;;;;;;6.75;6.75;;;;;23.29;37.81;100755.44;5056505;28;45479;-64
2022/06/15 01:57:28;;;;;;;;;6.25;5.25;;;;;23.25;37.88;100745.09;5057134;28;45537;-65
2022/06/15 02:00:10;;;;;;;;;2.50;1.75;;;;;23.28;37.90;100745.66;5057904;28;46703;-65
2022/06/15 02:02:48;;;;;;;;;6.00;6.00;;;;;23.26;38.14;100738.72;5084871;27;45502;-64
2022/06/15 02:05:38;;;;;;;;;8.75;8.75;;;;;23.25;37.92;100742.41;5094910;27;45541;-64
2022/06/15 02:08:11;;;;;;;;;8.50;8.50;;;;;23.22;38.39;100740.84;5076088;28;46002;-65
2022/06/15 02:11:00;;;;;;;;;6.75;6.75;;;;;23.19;38.52;100741.09;5058038;28;45534;-64
2022/06/15 02:13:47;;;;;;;;;6.75;5.25;;;;;23.14;38.66;100730.75;5055509;28;45421;-64
2022/06/15 02:16:55;;;;;;;;;8.50;7.75;;;;;23.13;38.42;100734.44;5060663;28;45415;-64
2022/06/15 02:19:30;;;;;;;;;7.50;6.00;;;;;23.08;38.72;100728.63;5073754;28;45666;-64
2022/06/15 02:21:58;;;;;;;;;7.00;7.00;;;;;23.06;38.87;100729.72;5057633;28;46554;-64
2022/06/15 02:24:25;;;;;;;;;8.50;5.75;;;;;23.03;38.99;100738.88;5075576;28;45516;-65
2022/06/15 02:27:09;;;;;;;;;7.25;7.25;;;;;23.00;39.11;100732.91;5069184;28;45425;-64
2022/06/15 02:29:38;;;;;;;;;7.00;7.00;;;;;22.98;39.21;100726.84;5055176;28;45394;-63
2022/06/15 02:32:16;;;;;;;;;5.50;5.50;;;;;22.98;38.93;100729.53;5052674;28;45994;-64
2022/06/15 02:34:42;;;;;;;;;8.25;7.25;;;;;22.97;39.36;100727.81;5072981;28;45654;-64
2022/06/15 02:37:09;;;;;;;;;8.50;8.00;;;;;22.92;39.42;100726.34;5073214;28;45494;-64
2022/06/15 02:39:34;;;;;;;;;8.00;5.00;;;;;22.93;39.59;100728.03;5075454;28;45650;-64
2022/06/15 02:42:28;;;;;;;;;8.50;8.50;;;;;22.90;39.55;100731.00;5064846;28;45472;-64
2022/06/15 02:44:58;;;;;;;;;8.00;8.00;;;;;22.89;39.52;100728.44;5055122;28;45559;-64
2022/06/15 02:47:28;;;;;;;;;6.50;6.50;;;;;22.86;39.70;100732.25;5066996;28;45465;-64
2022/06/15 02:49:54;;;;;;;;;5.00;5.00;;;;;22.84;39.89;100731.53;5074635;28;45491;-64
2022/06/15 02:52:24;;;;;;;;;4.00;4.00;;;;;22.83;40.28;100731.66;5072842;28;45878;-64
2022/06/15 02:54:52;;;;;;;;;7.75;6.00;;;;;22.80;40.08;100727.38;5075079;28;45536;-64
2022/06/15 02:57:20;;;;;;;;;6.00;6.00;;;;;22.83;40.21;100734.31;5062411;28;45472;-65
2022/06/15 02:59:46;;;;;;;;;8.50;7.00;;;;;22.79;40.10;100738.25;5054653;28;45582;-65
2022/06/15 03:02:14;;;;;;;;;4.25;4.25;;;;;22.78;40.38;100731.19;5055668;28;46693;-64
2022/06/15 03:04:46;;;;;;;;;6.25;6.25;;;;;22.79;40.55;100738.25;5054533;28;45526;-64
2022/06/15 03:07:13;;;;;;;;;6.00;6.00;;;;;22.78;40.46;100734.69;5065326;28;45483;-64
2022/06/15 03:09:39;;;;;;;;;7.00;7.00;;;;;22.75;40.71;100734.97;5065683;28;45532;-65
2022/06/15 03:12:06;;;;;;;;;7.50;5.75;;;;;22.77;40.77;100741.06;5064364;28;46582;-64
2022/06/15 03:14:32;;;;;;;;;6.25;6.25;;;;;22.78;40.59;100740.06;5073289;28;45621;-64
2022/06/15 03:16:58;;;;;;;;;6.50;6.50;;;;;22.79;41.01;100744.47;5070546;28;45622;-65
2022/06/15 03:19:24;;;;;;;;;6.00;6.00;;;;;22.79;40.88;100743.63;5078374;27;45605;-65
2022/06/15 03:21:50;;;;;;;;;6.50;6.50;;;;;22.76;41.02;100746.56;5080232;27;45508;-65
2022/06/15 03:24:16;;;;;;;;;7.50;7.50;;;;;22.71;40.95;100750.47;5074909;28;45592;-64
2022/06/15 03:26:41;;;;;;;;;6.25;6.25;;;;;22.66;41.07;100744.66;5074609;28;45549;-65
2022/06/15 03:29:07;;;;;;;;;8.25;7.25;;;;;22.68;40.83;100748.06;5063589;28;47469;-64
2022/06/15 03:31:33;;;;;;;;;6.50;6.50;;;;;22.65;41.15;100751.00;5068512;28;46316;-64
2022/06/15 03:33:58;;;;;;;;;8.00;7.00;;;;;22.60;41.37;100747.84;5058234;28;45530;-65
2022/06/15 03:36:23;;;;;;;;;6.75;6.75;;;;;22.62;41.19;100743.22;5071034;28;45554;-65
2022/06/15 03:38:49;;;;;;;;;8.00;8.00;;;;;22.63;41.36;100744.06;5054538;28;45714;-65
2022/06/15 03:41:15;;;;;;;;;6.75;5.75;;;;;22.61;41.30;100746.84;5054207;28;45524;-65
2022/06/15 03:43:41;;;;;;;;;7.00;7.00;;;;;22.60;41.57;100747.00;5040986;28;45443;-65
2022/06/15 03:46:06;;;;;;;;;7.00;7.00;;;;;22.60;41.37;100747.00;5074202;28;45497;-65
2022/06/15 03:48:32;;;;;;;;;4.50;4.00;;;;;22.59;41.72;100748.81;5060988;28;45470;-65
2022/06/15 03:50:57;;;;;;;;;6.00;6.00;;;;;22.61;41.78;100748.69;5070208;28;45462;-64
2022/06/15 03:53:22;;;;;;;;;7.33;7.33;;;;;22.60;41.66;100745.16;5057018;28;45427;-65
2022/06/15 03:55:48;;;;;;;;;7.50;7.00;;;;;22.62;41.60;100748.56;5074432;28;45487;-64
2022/06/15 03:58:17;;;;;;;;;6.50;6.50;;;;;22.62;42.01;100747.69;5071864;28;45500;-64
2022/06/15 04:00:42;;;;;;;;;5.00;5.00;;;;;22.61;41.79;100752.22;5069816;28;46482;-64
2022/06/15 04:03:08;;;;;;;;;7.00;7.00;;;;;22.61;41.79;100754.06;5055115;28;45507;-64
2022/06/15 04:05:41;;;;;;;;;8.00;8.00;;;;;22.57;41.69;100740.06;5072055;28;45524;-64
2022/06/15 04:10:55;;;;;;;;;7.00;7.00;;;;;22.57;41.82;100740.06;5071063;28;45906;-65
2022/06/15 04:13:21;;;;;;;;;7.00;7.00;;;;;22.57;41.95;100750.78;5054018;28;45575;-65
2022/06/15 04:15:48;;;;;;;;;9.00;8.00;;;;;22.56;42.02;100748.22;5063630;28;45523;-65
2022/06/15 04:18:13;;;;;;;;;7.00;7.00;;;;;22.51;42.16;100748.59;5040910;28;45599;-65
2022/06/15 04:20:40;;;;;;;;;7.00;7.00;;;;;22.44;42.36;100745.59;5053783;28;45479;-64
2022/06/15 04:23:14;;;;;;;;;7.25;6.25;;;;;22.46;42.40;100743.63;5070645;27;45468;-66
2022/06/15 04:25:46;;;;;;;;;10.00;9.75;;;;;22.47;42.57;100739.97;5093643;27;45517;-65
2022/06/15 04:28:13;;;;;;;;;7.75;7.75;;;;;22.48;42.42;100749.69;5054014;28;45619;-64
2022/06/15 04:30:39;;;;;;;;;8.75;8.75;;;;;22.48;42.68;100748.84;5069804;28;46584;-64
2022/06/15 04:33:05;;;;;;;;;8.67;8.33;;;;;22.47;42.80;100747.16;5070568;28;45510;-65
2022/06/15 04:35:31;;;;;;;;;10.25;8.75;;;;;22.46;42.34;100749.00;5064603;28;45567;-65
2022/06/15 04:37:56;;;;;;;;;9.33;9.33;;;;;22.48;41.98;100756.91;5066385;28;45988;-65
2022/06/15 04:40:22;;;;;;;;;8.00;8.00;;;;;22.49;42.53;100759.47;5069492;28;46668;-64
2022/06/15 04:42:47;;;;;;;;;8.50;7.50;;;;;22.45;42.30;100758.00;5072645;27;45586;-64
2022/06/15 04:45:14;;;;;;;;;8.50;8.50;;;;;22.47;42.48;100760.56;5094221;27;45503;-64
2022/06/15 04:47:40;;;;;;;;;9.67;8.00;;;;;22.44;42.47;100761.69;5056122;28;45488;-65
2022/06/15 04:50:07;;;;;;;;;8.00;8.00;;;;;22.38;42.75;100751.47;5053355;28;45484;-64
2022/06/15 04:52:33;;;;;;;;;8.75;8.75;;;;;22.40;42.43;100762.03;5080284;27;45562;-65
2022/06/15 04:54:59;;;;;;;;;7.00;7.00;;;;;22.33;42.74;100758.19;5094238;27;45415;-65
2022/06/15 04:57:24;;;;;;;;;10.00;8.00;;;;;22.35;42.53;100769.59;5094049;27;45553;-64
2022/06/15 04:59:49;;;;;;;;;6.25;6.25;;;;;22.36;42.60;100766.81;5093759;27;46679;-65
2022/06/15 05:02:15;;;;;;;;;10.00;10.00;;;;;22.41;42.39;100771.81;5096759;27;45502;-65
2022/06/15 05:04:41;;;;;;;;;7.00;7.00;;;;;22.38;43.07;100772.91;5097274;27;45431;-64
2022/06/15 05:07:07;;;;;;;;;8.75;7.50;;;;;22.36;43.04;100774.00;5088464;27;45572;-65
2022/06/15 05:09:32;;;;;;;;;8.00;7.00;;;;;22.40;42.83;100775.44;5076775;28;46116;-65
2022/06/15 05:11:58;;;;;;;;;10.75;10.25;;;;;22.42;42.75;100779.69;5076776;28;45571;-64
2022/06/15 05:14:23;;;;;;;;;8.00;8.00;;;;;22.35;42.97;100774.97;5058849;28;45466;-64
2022/06/15 05:16:48;;;;;;;;;10.00;10.00;;;;;22.33;43.02;100769.75;5076916;28;45575;-64
2022/06/15 05:19:14;;;;;;;;;9.25;9.00;;;;;22.39;42.90;100773.75;5076730;28;46499;-64
2022/06/15 05:21:44;;;;;;;;;10.00;8.50;;;;;22.35;42.74;100775.81;5077656;27;45539;-64
2022/06/15 05:24:11;;;;;;;;;9.25;9.00;;;;;22.33;42.97;100769.75;5076234;28;45855;-64
2022/06/15 05:26:37;;;;;;;;;8.00;8.00;;;;;22.33;42.83;100777.78;5075039;28;45515;-64
2022/06/15 05:29:03;;;;;;;;;9.75;8.25;;;;;22.41;42.81;100779.84;5076657;28;45504;-64
2022/06/15 05:31:29;;;;;;;;;10.33;10.33;;;;;22.41;42.63;100777.16;5076422;28;45484;-64
2022/06/15 05:33:56;;;;;;;;;9.25;9.25;;;;;22.44;42.74;100776.91;5076327;28;45645;-65
2022/06/15 05:36:28;;;;;;;;;8.75;7.75;;;;;22.42;42.99;100778.84;5075837;28;45625;-64
2022/06/15 05:38:54;;;;;;;;;8.00;7.00;;;;;22.47;43.40;100779.34;5076136;28;46814;-64
2022/06/15 05:41:20;;;;;;;;;10.00;10.00;;;;;22.46;42.53;100769.56;5076000;28;45569;-66
2022/06/15 05:46:22;;;;;;;;;10.33;10.33;;;;;22.43;42.85;100757.31;5055882;28;45683;-65
2022/06/15 05:48:47;;;;;;;;;31.33;31.00;;;;;22.43;42.58;100776.06;5071978;27;46697;-66
2022/06/15 05:51:13;;;;;;;;;46.00;38.67;;;;;22.42;43.10;100777.03;5096523;27;45483;-65
2022/06/15 05:53:38;;;;;;;;;24.67;23.33;;;;;22.42;42.74;100785.06;5088319;27;45522;-65
2022/06/15 05:56:04;;;;;;;;;12.00;12.00;;;;;22.43;43.46;100768.03;5074290;28;45496;-65
2022/06/15 05:58:29;;;;;;;;;9.00;9.00;;;;;22.47;43.53;100779.34;5075926;28;46362;-66
2022/06/15 06:00:54;;;;;;;;;9.50;9.00;;;;;22.50;43.21;100771.03;5074361;28;45487;-66
2022/06/15 06:03:20;;;;;;;;;11.00;11.00;;;;;22.52;42.77;100777.13;5055636;28;45468;-66
2022/06/15 06:05:45;;;;;;;;;9.67;9.67;;;;;22.45;42.84;100771.41;5068110;28;45744;-66
2022/06/15 06:08:10;;;;;;;;;16.33;16.33;;;;;22.49;42.91;100785.44;5072865;27;45541;-66
2022/06/15 06:10:36;;;;;;;;;9.00;9.00;;;;;22.49;42.83;100777.38;5070662;28;45513;-64
2022/06/15 06:13:01;;;;;;;;;12.67;12.67;;;;;22.52;42.99;100779.81;5055191;28;45448;-64
2022/06/15 06:15:26;;;;;;;;;12.00;11.00;;;;;22.54;42.91;100776.97;5055699;28;45452;-64
2022/06/15 06:17:52;;;;;;;;;14.33;13.00;;;;;22.52;42.88;100773.59;5067388;28;55026;-64
2022/06/15 06:20:17;;;;;;;;;13.33;13.33;;;;;22.55;42.87;100774.19;5075724;28;45701;-65
2022/06/15 06:22:43;;;;;;;;;13.00;10.00;;;;;22.59;42.66;100778.28;5075515;28;45372;-65
2022/06/15 06:25:08;;;;;;;;;15.33;13.00;;;;;22.60;42.70;100766.63;5075640;28;45557;-65
2022/06/15 06:27:34;;;;;;;;;10.67;10.67;;;;;22.63;42.70;100768.19;5075485;28;46550;-64
2022/06/15 06:30:00;;;;;;;;;13.33;12.00;;;;;22.69;43.24;100770.34;5052812;28;45520;-64
2022/06/15 06:32:25;;;;;;;;;9.33;9.33;;;;;22.73;42.85;100774.50;5055147;28;45646;-64
2022/06/15 06:34:51;;;;;;;;;12.00;10.00;;;;;22.76;42.63;100779.59;5054502;28;46153;-65
2022/06/15 06:37:16;;;;;;;;;12.75;11.25;;;;;22.76;42.56;100774.22;5054100;28;46400;-65
2022/06/15 06:39:42;;;;;;;;;9.00;9.00;;;;;22.82;42.71;100779.06;5054465;28;45505;-65
2022/06/15 06:42:10;;;;;;;;;12.00;12.00;;;;;22.88;42.26;100780.38;5053727;28;45528;-65
2022/06/15 06:44:36;;;;;;;;;10.50;10.00;;;;;22.89;42.57;100776.72;5054520;28;45586;-66
2022/06/15 06:47:02;;;;;;;;;12.00;12.00;;;;;22.95;42.30;100781.56;5036130;28;48281;-65
2022/06/15 06:49:29;;;;;;;;;12.67;11.67;;;;;23.00;41.80;100784.75;5054399;28;45474;-65
2022/06/15 06:51:54;;;;;;;;;11.67;11.33;;;;;22.98;41.78;100775.97;5054241;28;45539;-65
2022/06/15 06:54:22;;;;;;;;;14.00;13.00;;;;;23.06;41.98;100783.38;5054123;28;45510;-64
2022/06/15 06:56:48;;;;;;;;;11.33;10.67;;;;;23.08;41.75;100787.63;5054030;28;45588;-65
2022/06/15 06:59:15;;;;;;;;;9.00;9.00;;;;;23.07;41.69;100790.44;5054155;28;45482;-65
2022/06/15 07:01:43;;;;;;;;;10.00;10.00;;;;;23.10;41.58;100791.00;5054021;28;45484;-66
2022/06/15 07:04:09;;;;;;;;;11.00;11.00;;;;;22.99;41.30;100785.72;5054211;28;45667;-65
2022/06/15 07:06:35;;;;;;;;;11.25;11.25;;;;;23.04;41.42;100790.69;5053921;28;46031;-66
2022/06/15 07:09:01;;;;;;;;;13.33;13.33;;;;;23.12;41.63;100789.06;5053840;28;45495;-64
2022/06/15 07:11:27;;;;;;;;;10.00;9.00;;;;;23.19;41.33;100788.56;5054444;28;45496;-64
2022/06/15 07:13:52;;;;;;;;;12.00;12.00;;;;;23.26;41.15;100789.72;5053950;28;45708;-64
2022/06/15 07:16:20;;;;;;;;;11.25;10.25;;;;;23.32;41.26;100787.38;5053756;28;46143;-64
2022/06/15 07:18:47;;;;;;;;;11.25;11.25;;;;;23.36;40.77;100780.75;5053956;28;45487;-65
2022/06/15 07:21:19;;;;;;;;;9.25;9.00;;;;;23.47;40.94;100790.53;5035704;28;45509;-65
2022/06/15 07:23:48;;;;;;;;;11.33;11.33;;;;;23.54;40.75;100797.09;5052873;28;45509;-65
2022/06/15 07:26:17;;;;;;;;;9.00;9.00;;;;;23.63;40.87;100794.59;5053813;28;46129;-66
2022/06/15 07:28:43;;;;;;;;;11.25;11.25;;;;;23.66;40.40;100794.31;5053788;28;45548;-65
2022/06/15 07:31:09;;;;;;;;;14.75;11.00;;;;;23.74;40.59;100799.91;5035799;28;45462;-65
2022/06/15 07:33:36;;;;;;;;;4.00;3.75;;;;;23.78;40.50;100804.03;5035888;28;45459;-65
2022/06/15 07:36:03;;;;;;;;;13.00;11.00;;;;;23.81;40.02;100807.28;5053237;28;45586;-66
2022/06/15 07:38:28;;;;;;;;;9.25;9.00;;;;;23.80;39.87;100802.03;5053834;28;45507;-66
2022/06/15 07:40:53;;;;;;;;;8.25;8.25;;;;;23.76;39.84;100797.94;5053845;28;45591;-66
2022/06/15 07:43:19;;;;;;;;;11.75;10.50;;;;;23.81;39.64;100801.06;5053872;28;45484;-66
2022/06/15 07:45:45;;;;;;;;;14.00;11.25;;;;;23.80;40.15;100805.59;5053590;28;45667;-66
2022/06/15 07:50:54;;;;;;;;;8.25;6.75;;;;;23.82;39.67;100802.75;5053824;28;45545;-66
2022/06/15 07:53:20;;;;;;;;;9.00;9.00;;;;;23.84;39.74;100808.84;5053530;28;45459;-64
2022/06/15 07:55:47;;;;;;;;;9.00;9.00;;;;;23.81;39.42;100801.91;5053430;28;45464;-65
2022/06/15 07:58:14;;;;;;;;;11.00;10.75;;;;;23.87;39.57;100810.44;5053581;28;45479;-65
2022/06/15 08:00:42;;;;;;;;;10.25;9.00;;;;;23.86;39.43;100800.66;5053228;28;45530;-64
2022/06/15 08:03:09;;;;;;;;;10.50;9.00;;;;;23.90;39.56;100807.47;5053021;28;45586;-65
2022/06/15 08:05:39;;;;;;;;;12.25;11.50;;;;;23.91;39.48;100799.28;5053211;28;45697;-65
2022/06/15 08:08:08;;;;;;;;;10.00;9.50;;;;;23.92;39.90;100803.66;5053237;28;45528;-65
2022/06/15 08:10:34;;;;;;;;;10.25;8.25;;;;;23.92;39.18;100802.81;5053371;28;45409;-65
2022/06/15 08:13:00;;;;;;;;;10.75;9.75;;;;;23.94;39.30;100793.63;5053395;28;45620;-65
2022/06/15 08:15:25;;;;;;;;;6.25;6.25;;;;;23.99;39.20;100798.56;5053404;28;46723;-64
2022/06/15 08:17:58;;;;;;;;;11.50;10.75;;;;;24.01;39.20;100796.63;5053034;28;45434;-65
2022/06/15 08:20:33;;;;;;;;;10.25;10.00;;;;;24.02;39.04;100792.97;5053312;28;45501;-65
2022/06/15 08:23:05;;;;;;;;;11.50;11.50;;;;;24.03;38.64;100797.34;5053149;28;45501;-65
2022/06/15 08:25:39;;;;;;;;;11.50;9.75;;;;;24.07;39.21;100797.91;5053103;28;46703;-65
2022/06/15 08:28:05;;;;;;;;;11.75;10.00;;;;;24.10;38.95;100794.94;5053215;28;45498;-64
2022/06/15 08:30:31;;;;;;;;;8.50;8.50;;;;;24.09;39.11;100791.41;5052894;28;45518;-65
2022/06/15 08:32:56;;;;;;;;;11.00;9.50;;;;;24.13;38.73;100786.63;5053264;28;45549;-64
2022/06/15 08:35:23;;;;;;;;;9.75;9.75;;;;;24.21;39.32;100801.06;5054165;28;45585;-64
2022/06/15 08:37:49;;;;;;;;;9.00;9.00;;;;;24.24;38.42;100795.41;5056511;28;45480;-65
2022/06/15 08:40:16;;;;;;;;;8.50;7.50;;;;;24.25;38.00;100794.41;5056492;28;45515;-65
2022/06/15 08:43:16;;;;;;;;;9.00;9.00;;;;;24.28;38.27;100792.44;5056548;28;45481;-65
2022/06/15 08:45:48;;;;;;;;;9.25;8.00;;;;;24.35;37.83;100785.53;5056367;28;46642;-64
2022/06/15 08:48:28;;;;;;;;;8.25;7.25;;;;;24.36;37.95;100788.06;5038170;28;45524;-65
2022/06/15 08:51:09;;;;;;;;;11.25;11.25;;;;;24.42;37.79;100792.91;5056367;28;45569;-65
2022/06/15 08:53:41;;;;;;;;;9.00;9.00;;;;;24.43;37.45;100785.69;5056556;28;45492;-65
2022/06/15 08:56:13;;;;;;;;;9.50;9.50;;;;;24.48;37.40;100793.38;5056456;28;46620;-65
2022/06/15 08:58:47;;;;;;;;;10.25;8.00;;;;;24.49;37.54;100792.38;5056290;28;45518;-65
2022/06/15 09:01:40;;;;;;;;;7.25;7.25;;;;;24.51;37.65;100791.25;5038212;28;45579;-65
2022/06/15 09:04:16;;;;;;;;;10.50;9.00;;;;;24.54;37.51;100788.28;5056417;28;45495;-66
2022/06/15 09:07:06;;;;;;;;;10.25;9.00;;;;;24.57;37.28;100787.16;5055853;28;46369;-66
2022/06/15 09:09:55;;;;;;;;;7.25;7.25;;;;;24.60;37.08;100792.25;5055909;28;45512;-66
2022/06/15 09:12:49;;;;;;;;;10.00;9.00;;;;;24.63;37.28;100783.88;5055912;28;45608;-65
2022/06/15 09:15:36;;;;;;;;;10.00;8.25;;;;;24.68;37.35;100787.84;5055911;28;45561;-66
2022/06/15 09:18:09;;;;;;;;;8.50;8.25;;;;;24.71;37.00;100783.19;5055553;28;45535;-65
2022/06/15 09:20:41;;;;;;;;;9.75;9.00;;;;;24.73;37.13;100790.13;5055852;28;45563;-65
2022/06/15 09:23:34;;;;;;;;;8.75;8.75;;;;;24.82;36.86;100797.34;5056072;28;45513;-66
2022/06/15 09:26:11;;;;;;;;;15.67;15.67;;;;;24.87;37.31;100796.91;5055733;28;45505;-66
2022/06/15 09:28:45;;;;;;;;;12.25;12.25;;;;;24.91;36.39;100801.03;5055752;28;46262;-66
2022/06/15 09:31:17;;;;;;;;;10.00;9.00;;;;;24.92;36.50;100800.03;5055851;28;45417;-66
2022/06/15 09:33:50;;;;;;;;;7.50;7.50;;;;;24.93;36.74;100793.66;5056190;28;45551;-65
2022/06/15 09:36:23;;;;;;;;;8.25;8.00;;;;;24.98;36.38;100799.47;5037578;28;45567;-65
2022/06/15 09:38:49;;;;;;;;;9.25;9.25;;;;;24.99;36.43;100801.19;5055504;28;45554;-65
2022/06/15 09:41:24;;;;;;;;;8.00;8.00;;;;;25.02;36.57;100800.88;5055523;28;45460;-65
2022/06/15 09:44:08;;;;;;;;;9.25;9.25;;;;;25.02;36.37;100786.59;5055857;28;45440;-66
2022/06/15 09:46:45;;;;;;;;;7.75;7.75;;;;;25.06;34.67;100787.97;5054822;28;45623;-65
2022/06/15 09:49:32;;;;;;;;;9.00;9.00;;;;;25.13;34.54;100786.44;5055503;28;46956;-65
2022/06/15 09:52:05;;;;;;;;;9.50;9.50;;;;;25.18;34.77;100786.88;5055267;28;45543;-66
2022/06/15 09:54:50;;;;;;;;;9.00;9.00;;;;;25.24;35.02;100788.97;5055401;28;45473;-65
2022/06/15 09:57:17;;;;;;;;;7.50;7.50;;;;;25.28;35.28;100785.03;5055401;28;45531;-65
2022/06/15 09:59:43;;;;;;;;;9.50;9.00;;;;;25.30;35.50;100782.16;5055031;28;45590;-66
2022/06/15 10:02:21;;;;;;;;;11.00;11.00;;;;;25.32;35.35;100786.41;5054922;28;45546;-65
2022/06/15 10:04:46;;;;;;;;;10.00;8.75;;;;;25.33;35.44;100780.06;5055301;28;45476;-66
2022/06/15 10:07:33;;;;;;;;;9.75;9.50;;;;;25.36;35.03;100781.56;5055190;28;45517;-66
2022/06/15 10:10:17;;;;;;;;;9.75;7.50;;;;;25.37;35.19;100777.91;5054799;28;45617;-66
2022/06/15 10:12:56;;;;;;;;;9.00;9.00;;;;;25.43;34.38;100785.38;5054883;28;45489;-65
2022/06/15 10:15:28;;;;;;;;;10.50;9.00;;;;;25.45;34.59;100788.78;5054904;28;45495;-65
2022/06/15 10:17:59;;;;;;;;;12.75;12.50;;;;;25.45;34.82;100777.19;5053462;28;45978;-65
2022/06/15 10:20:35;;;;;;;;;11.00;9.25;;;;;25.53;34.58;100790.75;5054099;28;45517;-65
2022/06/15 10:23:18;;;;;;;;;7.25;7.25;;;;;25.58;34.84;100801.94;5054243;28;45396;-66
2022/06/15 10:25:51;;;;;;;;;9.25;8.75;;;;;25.59;34.66;100787.47;5054596;28;45472;-65
2022/06/15 10:28:23;;;;;;;;;11.50;11.00;;;;;25.66;35.10;100796.66;5054346;28;45454;-66
2022/06/15 10:30:58;;;;;;;;;10.25;10.25;;;;;25.68;35.20;100794.66;5054038;28;45527;-65
2022/06/15 10:33:24;;;;;;;;;12.00;12.00;;;;;25.69;35.04;100785.59;5053918;28;45464;-66
2022/06/15 10:35:56;;;;;;;;;10.25;10.25;;;;;25.70;34.61;100789.97;5053658;28;45611;-66
2022/06/15 10:38:23;;;;;;;;;9.75;9.25;;;;;25.77;34.53;100799.19;5053286;28;45545;-65
2022/06/15 10:40:55;;;;;;;;;9.75;9.75;;;;;25.79;34.52;100796.31;5053570;28;46655;-65
2022/06/15 10:43:31;;;;;;;;;11.00;11.00;;;;;25.84;34.31;100790.53;5053901;28;45518;-65
2022/06/15 10:46:05;;;;;;;;;10.50;10.50;;;;;25.84;34.68;100787.81;5053478;28;45473;-65
2022/06/15 10:48:41;;;;;;;;;9.50;8.75;;;;;25.90;34.46;100789.91;5053707;28;45625;-65
2022/06/15 10:51:08;;;;;;;;;9.50;9.50;;;;;25.90;34.44;100784.53;5053749;28;46263;-65
2022/06/15 10:53:50;;;;;;;;;11.25;11.25;;;;;26.00;34.18;100788.88;5035304;28;45473;-66
2022/06/15 11:02:17;;;;;;;;;8.50;8.50;;;;;26.07;34.69;100789.13;5053011;28;45551;-65
2022/06/15 11:04:46;;;;;;;;;12.50;11.75;;;;;26.13;34.84;100790.38;5052873;28;45520;-65
2022/06/15 11:07:28;;;;;;;;;9.75;9.75;;;;;26.16;34.78;100788.22;5052932;28;45467;-65
2022/06/15 11:09:53;;;;;;;;;12.50;10.00;;;;;26.18;34.95;100791.63;5053431;28;45675;-65
2022/06/15 11:12:43;;;;;;;;;10.75;8.75;;;;;26.20;34.84;100780.69;5052898;28;46330;-65
2022/06/15 11:15:20;;;;;;;;;12.75;12.00;;;;;26.24;34.65;100782.06;5053071;28;45516;-65
2022/06/15 11:18:05;;;;;;;;;11.75;11.75;;;;;26.29;34.20;100781.63;5053174;28;45487;-65
2022/06/15 11:20:46;;;;;;;;;10.75;9.50;;;;;26.37;33.99;100784.41;5052562;28;45566;-64
2022/06/15 11:23:22;;;;;;;;;12.00;12.00;;;;;26.39;34.13;100779.72;5052518;28;45536;-65
2022/06/15 11:25:57;;;;;;;;;9.00;9.00;;;;;26.44;34.49;100780.13;5034593;28;45902;-65
2022/06/15 11:28:29;;;;;;;;;21.25;20.00;;;;;26.45;34.52;100779.94;5052489;28;45455;-65
2022/06/15 11:31:01;;;;;;;;;11.75;11.75;;;;;26.48;34.78;100778.78;5052902;28;45481;-66
2022/06/15 11:33:45;;;;;;;;;14.00;13.75;;;;;26.55;34.51;100773.69;5052627;28;45694;-65
2022/06/15 11:36:10;;;;;;;;;16.00;13.75;;;;;26.61;33.41;100781.16;5052630;28;45469;-65
2022/06/15 11:39:02;;;;;;;;;12.00;12.00;;;;;26.69;34.01;100778.53;5052901;28;45415;-65
2022/06/15 11:41:39;;;;;;;;;12.75;11.75;;;;;26.68;33.74;100768.75;5053004;28;45421;-66
2022/06/15 11:44:16;;;;;;;;;13.00;13.00;;;;;26.71;34.21;100776.53;5034665;28;46929;-65
2022/06/15 11:46:51;;;;;;;;;13.75;13.75;;;;;26.71;34.13;100775.69;5034467;28;45854;-65
2022/06/15 11:49:33;;;;;;;;;9.25;9.25;;;;;26.73;33.93;100770.97;5053508;28;45489;-65